Time;durP1;ratioP1;P1;durP2;ratioP2;P2;SDS_P1;SDS_P2;PMS_P1;PMS_P2;Temp;Humidity;BMP_temperature;BMP_pressure;BME280_temperature;BME280_humidity;BME280_pressure;Samples;Min_cycle;Max_cycle;Signal;HPM_P1;HPM_P2
2022/10/03 00:00:23;;;;;;;;;;;;;;;13.45;74.77;93362.13;2050791;70;20138;-75
2022/10/03 00:03:14;;;;;;;0.25;0.20;;;;;;;13.46;74.49;93355.84;2050688;70;20042;-77
2022/10/03 00:06:08;;;;;;;0.50;0.20;;;;;;;13.40;74.99;93349.81;2050761;70;20249;-74
2022/10/03 00:08:52;;;;;;;0.43;0.30;;;;;;;13.40;74.60;93347.00;2051207;70;20244;-78
2022/10/03 00:11:57;;;;;;;0.80;0.40;;;;;;;13.36;74.43;93352.41;2050894;70;20181;-74
2022/10/03 00:14:44;;;;;;;0.35;0.13;;;;;;;13.43;73.68;93354.25;2043728;70;20198;-77
2022/10/03 00:17:22;;;;;;;3.15;0.30;;;;;;;13.39;74.26;93347.63;2044405;70;20575;-75
2022/10/03 00:20:38;;;;;;;0.35;0.20;;;;;;;13.38;74.43;93348.97;2044438;70;20163;-73
2022/10/03 00:23:14;;;;;;;0.10;0.10;;;;;;;13.39;73.51;93348.34;2042316;70;20582;-78
2022/10/03 00:26:00;;;;;;;0.47;0.20;;;;;;;13.45;72.79;93357.19;2044430;70;20282;-78
2022/10/03 00:28:34;;;;;;;1.10;0.20;;;;;;;13.21;73.92;93367.72;2044459;70;20159;-78
2022/10/03 00:31:08;;;;;;;1.10;0.40;;;;;;;13.07;74.62;93361.22;2049377;70;20237;-76
2022/10/03 00:33:50;;;;;;;2.90;0.35;;;;;;;13.24;74.10;93365.81;2044841;70;20161;-78
2022/10/03 00:36:37;;;;;;;4.57;0.30;;;;;;;13.23;74.13;93365.03;2045716;70;20595;-79
2022/10/03 00:39:49;;;;;;;1.98;0.55;;;;;;;13.30;73.92;93374.66;2045920;70;20210;-74
2022/10/03 00:42:48;;;;;;;3.35;0.40;;;;;;;13.30;74.32;93374.66;2045616;70;20201;-79
2022/10/03 00:45:41;;;;;;;1.98;0.50;;;;;;;13.25;74.62;93377.84;2045474;70;20183;-75
2022/10/03 00:48:39;;;;;;;1.08;0.30;;;;;;;13.22;74.75;93374.16;2045602;70;20139;-78
2022/10/03 00:51:16;;;;;;;3.83;0.40;;;;;;;13.28;73.89;93382.25;2045676;70;20162;-81
2022/10/03 00:53:45;;;;;;;1.65;0.40;;;;;;;13.22;74.74;93376.97;2044863;70;20127;-79
2022/10/03 00:56:31;;;;;;;0.50;0.40;;;;;;;13.21;75.03;93375.47;2045506;70;20139;-79
2022/10/03 00:58:56;;;;;;;1.02;0.40;;;;;;;13.20;74.76;93371.19;2045516;70;20250;-78
2022/10/03 01:01:55;;;;;;;1.33;0.40;;;;;;;13.13;75.28;93378.53;2045220;70;20290;-78
2022/10/03 01:04:52;;;;;;;3.72;0.47;;;;;;;13.20;74.46;93390.97;2041177;70;20253;-77
2022/10/03 01:07:29;;;;;;;1.42;0.52;;;;;;;13.17;74.73;93386.53;2041252;70;20598;-77
2022/10/03 01:10:01;;;;;;;0.68;0.40;;;;;;;13.17;74.85;93390.09;2041390;70;20278;-77
2022/10/03 01:12:52;;;;;;;0.30;0.30;;;;;;;13.20;74.33;93388.88;2041091;70;20201;-77
2022/10/03 01:15:39;;;;;;;1.95;0.40;;;;;;;13.22;74.59;93388.28;2041318;70;20182;-78
2022/10/03 01:18:30;;;;;;;1.05;0.43;;;;;;;13.16;74.83;93394.28;2041254;70;20174;-78
2022/10/03 01:21:15;;;;;;;1.02;0.40;;;;;;;13.14;75.30;93376.44;2041156;70;20293;-74
2022/10/03 01:24:03;;;;;;;0.73;0.47;;;;;;;13.15;75.37;93381.50;2041111;70;20308;-76
2022/10/03 01:26:53;;;;;;;1.48;0.40;;;;;;;13.18;73.91;93383.09;2040042;70;20252;-76
2022/10/03 01:32:51;;;;;;;2.22;0.40;;;;;;;13.11;75.50;93374.84;2041235;70;20148;-79
2022/10/03 01:35:39;;;;;;;0.25;0.17;;;;;;;13.13;74.46;93375.72;2041200;70;20191;-75
2022/10/03 01:38:25;;;;;;;3.30;0.40;;;;;;;13.10;74.52;93360.00;2041112;70;20254;-78
2022/10/03 01:41:19;;;;;;;0.75;0.32;;;;;;;13.07;75.16;93363.28;2047858;70;20151;-78
2022/10/03 01:43:54;;;;;;;0.63;0.20;;;;;;;13.11;74.01;93374.84;2049045;70;20337;-77
2022/10/03 01:46:44;;;;;;;3.13;0.22;;;;;;;13.10;74.96;93379.00;2048256;70;20147;-77
2022/10/03 01:49:35;;;;;;;2.28;0.30;;;;;;;13.04;74.68;93382.22;2048388;70;20131;-76
2022/10/03 01:52:11;;;;;;;1.40;0.25;;;;;;;13.06;74.35;93365.38;2048325;70;20594;-75
2022/10/03 01:54:54;;;;;;;1.25;0.30;;;;;;;13.03;74.61;93363.78;2048278;70;20186;-80
2022/10/03 01:57:20;;;;;;;;;;;;;;;13.01;74.92;93369.28;2050702;70;20502;-76
2022/10/03 02:00:04;;;;;;;0.22;0.20;;;;;;;12.95;74.66;93369.66;2050329;70;20042;-76
2022/10/03 02:02:43;;;;;;;0.20;0.20;;;;;;;13.01;73.81;93365.72;2050390;70;20179;-77
2022/10/03 02:05:11;;;;;;;0.55;0.10;;;;;;;13.01;73.64;93374.94;2048354;70;20498;-75
2022/10/03 02:07:53;;;;;;;0.20;0.17;;;;;;;12.86;75.69;93378.97;2048468;70;20551;-78
2022/10/03 02:10:46;;;;;;;3.83;0.30;;;;;;;12.91;75.21;93385.63;2048310;70;20151;-79
2022/10/03 02:13:22;;;;;;;0.93;0.35;;;;;;;12.89;75.46;93396.81;2050002;70;20154;-78
2022/10/03 02:16:17;;;;;;;1.20;0.30;;;;;;;12.90;75.05;93389.78;2051371;70;20589;-78
2022/10/03 02:19:05;;;;;;;2.40;0.30;;;;;;;12.85;75.45;93385.97;2051579;70;20615;-79
2022/10/03 02:21:32;;;;;;;1.33;0.20;;;;;;;12.86;75.11;93387.44;2051515;70;20573;-79
2022/10/03 02:24:23;;;;;;;0.13;0.13;;;;;;;12.86;74.81;93383.88;2051649;70;20670;-79
2022/10/03 02:27:05;;;;;;;4.72;0.35;;;;;;;12.87;74.87;93388.19;2051513;70;20225;-77
2022/10/03 02:29:43;;;;;;;2.50;0.40;;;;;;;12.86;75.11;93392.38;2051514;70;20162;-78
2022/10/03 02:32:17;;;;;;;2.20;0.40;;;;;;;12.84;75.68;93386.59;2050618;70;20183;-78
2022/10/03 02:35:19;;;;;;;0.50;0.10;;;;;;;12.82;75.14;93384.38;2051549;70;20142;-79
2022/10/03 02:38:04;;;;;;;0.85;0.20;;;;;;;12.83;74.70;93374.56;2051671;70;20167;-78
2022/10/03 02:40:55;;;;;;;2.90;0.57;;;;;;;12.79;74.97;93374.31;2051529;70;20494;-78
2022/10/03 02:43:42;;;;;;;0.77;0.30;;;;;;;12.81;73.74;93374.41;2051650;70;20150;-79
2022/10/03 02:46:25;;;;;;;1.50;0.30;;;;;;;12.77;74.28;93371.31;2051380;70;20206;-74
2022/10/03 02:48:57;;;;;;;1.30;0.30;;;;;;;12.81;74.34;93374.41;2051515;70;20134;-76
2022/10/03 02:51:47;;;;;;;0.17;0.17;;;;;;;12.82;74.72;93378.72;2051450;70;20629;-79
2022/10/03 02:54:42;;;;;;;0.93;0.20;;;;;;;12.78;75.12;93386.94;2051456;70;20153;-78
2022/10/03 02:57:26;;;;;;;2.85;0.30;;;;;;;12.77;75.38;93379.81;2051548;70;20158;-79
2022/10/03 03:00:04;;;;;;;2.65;0.30;;;;;;;12.79;74.59;93382.03;2051393;70;20174;-79
2022/10/03 03:02:54;;;;;;;2.38;0.40;;;;;;;12.80;74.79;93375.78;2051673;70;20199;-79
2022/10/03 03:05:41;;;;;;;1.35;0.40;;;;;;;12.78;74.98;93389.00;2051512;70;20142;-79
2022/10/03 03:08:32;;;;;;;1.05;0.28;;;;;;;12.75;75.78;93384.59;2053607;70;20152;-80
2022/10/03 03:11:26;;;;;;;0.68;0.28;;;;;;;12.76;74.57;93383.97;2051358;70;20331;-78
2022/10/03 03:14:23;;;;;;;1.85;0.20;;;;;;;12.75;75.24;93388.16;2051512;70;20245;-79
2022/10/03 03:16:51;;;;;;;0.38;0.20;;;;;;;12.75;74.70;93399.47;2051385;70;20271;-78
2022/10/03 03:20:16;;;;;;;1.55;0.28;;;;;;;12.75;75.19;93391.00;2051343;70;20257;-79
2022/10/03 03:23:17;;;;;;;3.72;0.20;;;;;;;12.79;74.81;93393.34;2040174;70;20588;-79
2022/10/03 03:26:26;;;;;;;5.90;0.25;;;;;;;12.75;74.78;93391.00;2040373;70;20156;-73
2022/10/03 03:29:13;;;;;;;3.33;0.40;;;;;;;12.76;74.35;93388.91;2040425;70;20234;-78
2022/10/03 03:31:51;;;;;;;2.53;0.40;;;;;;;12.76;74.30;93391.72;2040332;70;20671;-78
2022/10/03 03:34:52;;;;;;;1.33;0.13;;;;;;;12.72;74.90;93389.38;2040319;70;20338;-79
2022/10/03 03:37:23;;;;;;;1.52;0.20;;;;;;;12.77;74.20;93408.06;2039780;70;20254;-80
2022/10/03 03:40:04;;;;;;;0.57;0.20;;;;;;;12.72;75.02;93406.31;2037612;70;20144;-79
2022/10/03 03:42:59;;;;;;;0.30;0.30;;;;;;;12.74;75.04;93395.16;2040412;70;20158;-79
2022/10/03 03:45:43;;;;;;;4.53;0.70;;;;;;;12.69;74.77;93399.81;2040260;70;20151;-74
2022/10/03 03:48:29;;;;;;;1.25;0.43;;;;;;;12.61;74.16;93402.13;2040492;70;20147;-77
2022/10/03 03:51:20;;;;;;;2.60;0.68;;;;;;;12.61;76.00;93407.03;2040385;70;20150;-78
2022/10/03 03:54:05;;;;;;;1.08;0.60;;;;;;;12.65;75.38;93404.47;2040357;70;20183;-78
2022/10/03 03:56:39;;;;;;;5.90;0.70;;;;;;;12.63;76.27;93407.16;2040394;70;20146;-78
2022/10/03 03:59:24;;;;;;;1.67;0.40;;;;;;;12.64;75.51;93403.72;2051243;70;20157;-77
2022/10/03 04:01:50;;;;;;;0.30;0.25;;;;;;;12.63;75.13;93407.16;2051544;70;20150;-78
2022/10/03 04:04:36;;;;;;;0.82;0.40;;;;;;;12.40;76.97;93410.63;2051265;70;20240;-76
2022/10/03 04:07:12;;;;;;;2.35;0.40;;;;;;;12.61;75.55;93409.84;2051341;70;20509;-75
2022/10/03 04:09:42;;;;;;;1.95;0.55;;;;;;;12.61;75.30;93407.03;2051164;70;20173;-78
2022/10/03 04:12:24;;;;;;;1.48;1.00;;;;;;;12.62;75.63;93403.59;2051141;70;20207;-78
2022/10/03 04:15:08;;;;;;;1.42;0.90;;;;;;;12.58;75.14;93405.41;2051218;70;20238;-78
2022/10/03 04:20:54;;;;;;;1.35;0.50;;;;;;;12.54;76.40;93397.41;2051511;70;20143;-78
2022/10/03 04:23:46;;;;;;;2.05;0.55;;;;;;;12.41;77.03;93407.19;2051305;70;20167;-74
2022/10/03 04:26:27;;;;;;;3.53;0.70;;;;;;;12.45;76.13;93407.44;2049942;70;20146;-73
2022/10/03 04:29:28;;;;;;;1.17;0.50;;;;;;;12.56;75.59;93402.47;2051333;70;20616;-76
2022/10/03 04:32:02;;;;;;;6.18;1.15;;;;;;;12.58;75.56;93402.59;2049682;70;20263;-76
2022/10/03 04:34:49;;;;;;;3.30;1.40;;;;;;;12.57;75.85;93401.84;2051307;70;20143;-73
2022/10/03 04:37:46;;;;;;;2.55;1.40;;;;;;;12.55;76.06;93403.81;2051412;70;20597;-75
2022/10/03 04:40:33;;;;;;;2.00;1.40;;;;;;;12.49;76.80;93403.41;2051283;70;20150;-75
2022/10/03 04:43:20;;;;;;;3.13;1.58;;;;;;;12.52;75.47;93407.84;2051386;70;20180;-75
2022/10/03 04:46:21;;;;;;;3.45;1.75;;;;;;;12.53;75.74;93403.69;2051291;70;20162;-75
2022/10/03 04:49:28;;;;;;;3.72;1.58;;;;;;;12.55;75.58;93401.72;2050565;70;20625;-78
2022/10/03 04:52:11;;;;;;;1.73;1.27;;;;;;;12.55;75.72;93396.06;2040271;70;20171;-79
2022/10/03 04:55:03;;;;;;;3.90;1.73;;;;;;;12.32;76.65;93405.16;2040299;70;20164;-77
2022/10/03 04:57:49;;;;;;;8.57;2.28;;;;;;;12.29;77.53;93405.66;2040333;70;20158;-77
2022/10/03 05:00:24;;;;;;;2.95;1.50;;;;;;;12.41;76.08;93401.53;2040171;70;20699;-77
2022/10/03 05:03:01;;;;;;;0.95;0.95;;;;;;;12.40;76.56;93404.97;2040223;70;20154;-78
2022/10/03 05:05:43;;;;;;;1.50;0.90;;;;;;;12.22;76.46;93401.69;2040236;70;20183;-77
2022/10/03 05:08:23;;;;;;;2.50;0.88;;;;;;;12.34;76.33;93410.97;2040299;70;20194;-78
2022/10/03 05:11:00;;;;;;;2.50;1.00;;;;;;;12.34;76.22;93404.59;2040163;70;20232;-77
2022/10/03 05:13:41;;;;;;;1.15;1.02;;;;;;;12.29;76.68;93411.31;2040204;70;20294;-78
2022/10/03 05:16:17;;;;;;;1.00;0.90;;;;;;;12.30;75.73;93404.31;2040028;70;20647;-76
2022/10/03 05:18:53;;;;;;;1.75;0.90;;;;;;;12.30;75.74;93407.88;2040171;70;20531;-77
2022/10/03 05:21:56;;;;;;;6.55;1.30;;;;;;;12.28;76.29;93418.28;2040562;70;20150;-76
2022/10/03 05:24:38;;;;;;;2.90;1.52;;;;;;;12.24;76.23;93415.94;2040662;70;20179;-77
2022/10/03 05:27:23;;;;;;;3.45;1.00;;;;;;;12.18;76.22;93426.81;2041348;70;20539;-77
2022/10/03 05:30:13;;;;;;;2.88;1.25;;;;;;;12.12;77.10;93437.72;2051734;70;20142;-75
2022/10/03 05:32:43;;;;;;;2.28;1.60;;;;;;;12.10;76.59;93435.50;2051886;70;20589;-74
2022/10/03 05:35:31;;;;;;;2.65;1.38;;;;;;;12.23;76.56;93439.84;2051730;70;20158;-75
2022/10/03 05:38:14;;;;;;;1.67;0.88;;;;;;;12.25;76.12;93442.81;2051701;70;20182;-74
2022/10/03 05:41:10;;;;;;;0.98;0.70;;;;;;;12.31;76.18;93448.88;2051842;70;20142;-73
2022/10/03 05:44:21;;;;;;;2.00;0.85;;;;;;;12.36;75.44;93444.97;2051655;70;20166;-78
2022/10/03 05:46:56;;;;;;;18.60;6.00;;;;;;;12.03;77.77;93447.72;2047434;70;20134;-77
2022/10/03 05:49:56;;;;;;;5.47;2.30;;;;;;;12.28;76.27;93449.34;2051660;70;20147;-78
2022/10/03 05:52:44;;;;;;;7.47;3.33;;;;;;;12.30;74.84;93443.84;2051649;70;20304;-78
2022/10/03 05:55:09;;;;;;;7.88;4.43;;;;;;;12.33;75.88;93445.47;2051602;70;20192;-78
2022/10/03 05:57:53;;;;;;;13.40;6.70;;;;;;;12.25;76.94;93442.81;2050582;70;20174;-78
2022/10/03 06:00:36;;;;;;;10.75;6.60;;;;;;;12.33;75.75;93460.31;2048242;70;20146;-78
2022/10/03 06:03:29;;;;;;;9.00;4.32;;;;;;;12.36;75.63;93469.63;2048429;70;20158;-77
2022/10/03 06:06:10;;;;;;;6.40;3.72;;;;;;;12.41;74.70;93465.75;2048437;70;20258;-79
2022/10/03 06:09:14;;;;;;;6.75;2.72;;;;;;;12.44;75.42;93470.19;2048303;70;20173;-78
2022/10/03 06:12:01;;;;;;;3.75;2.67;;;;;;;12.41;75.67;93477.78;2048290;70;20146;-75
2022/10/03 06:14:42;;;;;;;6.15;4.05;;;;;;;12.23;77.98;93492.75;2048207;70;20534;-76
2022/10/03 06:17:27;;;;;;;6.60;3.90;;;;;;;12.38;76.08;93487.47;2048545;70;20583;-76
2022/10/03 06:20:12;;;;;;;5.85;3.83;;;;;;;12.49;74.38;93494.53;2048273;70;20154;-74
2022/10/03 06:23:15;;;;;;;8.70;3.60;;;;;;;12.48;75.28;93495.88;2048571;70;20155;-80
2022/10/03 06:26:02;;;;;;;6.18;5.38;;;;;;;12.39;76.24;93493.84;2048400;70;20164;-77
2022/10/03 06:28:45;;;;;;;7.47;5.57;;;;;;;12.17;77.61;93499.47;2048411;70;20230;-77
2022/10/03 06:31:39;;;;;;;12.73;7.93;;;;;;;12.21;78.50;93496.94;2048019;70;20142;-76
2022/10/03 06:34:28;;;;;;;11.30;6.95;;;;;;;12.31;76.66;93507.41;2048596;70;20143;-76
2022/10/03 06:37:00;;;;;;;7.35;4.80;;;;;;;12.42;76.70;93506.78;2048461;70;20301;-75
2022/10/03 06:39:44;;;;;;;7.75;5.70;;;;;;;12.50;75.88;93509.38;2048279;70;20197;-76
2022/10/03 06:43:01;;;;;;;10.25;6.47;;;;;;;12.50;76.87;93515.03;2048421;70;20185;-73
2022/10/03 06:45:42;;;;;;;7.68;5.60;;;;;;;12.55;75.91;93511.88;2037027;70;20612;-78
2022/10/03 06:48:13;;;;;;;6.28;5.18;;;;;;;12.60;75.31;93513.63;2037183;70;20193;-79
2022/10/03 06:51:00;;;;;;;8.10;5.57;;;;;;;12.62;76.34;93519.41;2037196;70;20284;-79
2022/10/03 06:53:41;;;;;;;7.55;4.70;;;;;;;12.70;76.11;93522.78;2037182;70;20263;-80
2022/10/03 06:56:15;;;;;;;5.88;4.55;;;;;;;12.80;74.45;93519.13;2037229;70;20143;-79
2022/10/03 06:59:15;;;;;;;8.20;5.10;;;;;;;12.90;73.12;93520.53;2037260;70;20151;-80
2022/10/03 07:02:02;;;;;;;6.82;5.88;;;;;;;12.95;74.46;93521.53;2037361;70;20500;-78
2022/10/03 07:04:55;;;;;;;8.05;6.57;;;;;;;12.93;74.08;93513.66;2037204;70;20170;-75
2022/10/03 07:07:39;;;;;;;7.55;4.90;;;;;;;12.87;75.50;93523.81;2037258;70;20183;-75
2022/10/03 07:10:25;;;;;;;5.22;4.32;;;;;;;12.97;73.75;93530.16;2037664;70;20296;-76
2022/10/03 07:13:09;;;;;;;9.13;4.43;;;;;;;12.86;75.94;93533.66;2037126;70;20624;-79
2022/10/03 07:16:13;;;;;;;5.20;3.70;;;;;;;13.07;72.54;93539.28;2037062;70;20148;-78
2022/10/03 07:18:53;;;;;;;4.68;3.70;;;;;;;13.13;72.78;93542.50;2037362;70;20600;-77
2022/10/03 07:21:30;;;;;;;6.78;3.60;;;;;;;13.09;73.61;93539.41;2043826;70;20139;-78
2022/10/03 07:24:01;;;;;;;5.40;3.85;;;;;;;13.17;73.23;93542.75;2048214;70;20634;-77
2022/10/03 07:26:46;;;;;;;4.35;3.45;;;;;;;13.19;71.22;93544.97;2048172;70;20146;-77
2022/10/03 07:29:23;;;;;;;4.40;3.28;;;;;;;13.19;73.60;93553.47;2048109;70;20186;-78
2022/10/03 07:31:49;;;;;;;5.55;3.42;;;;;;;12.95;75.75;93544.13;2048222;70;20560;-77
2022/10/03 07:34:18;;;;;;;3.85;3.08;;;;;;;13.11;73.28;93539.56;2048104;70;20139;-74
2022/10/03 07:39:58;;;;;;;6.63;3.25;;;;;;;13.35;72.74;93546.06;2048237;70;20486;-77
2022/10/03 07:42:33;;;;;;;3.88;3.30;;;;;;;13.37;73.74;93540.53;2048089;70;20378;-77
2022/10/03 07:45:33;;;;;;;6.78;4.40;;;;;;;13.20;76.12;93546.47;2047894;70;20182;-77
2022/10/03 07:48:08;;;;;;;5.88;5.13;;;;;;;13.26;75.27;93552.53;2043990;70;20148;-76
2022/10/03 07:50:36;;;;;;;6.35;4.07;;;;;;;13.28;74.85;93555.50;2048142;70;20232;-74
2022/10/03 07:53:14;;;;;;;4.25;2.92;;;;;;;13.41;73.96;93557.75;2048236;70;20143;-78
2022/10/03 07:55:46;;;;;;;3.53;3.08;;;;;;;13.70;73.36;93568.06;2048143;70;20134;-75
2022/10/03 07:58:27;;;;;;;3.60;2.90;;;;;;;13.63;72.55;93566.19;2048171;70;20525;-77
2022/10/03 08:01:22;;;;;;;3.97;2.90;;;;;;;13.82;72.56;93565.97;2048098;70;20154;-79
2022/10/03 08:04:12;;;;;;;4.78;3.03;;;;;;;13.92;71.77;93566.59;2048055;70;20607;-76
2022/10/03 08:06:42;;;;;;;4.22;3.15;;;;;;;13.90;71.54;93574.97;2048149;70;20157;-72
2022/10/03 08:09:35;;;;;;;2.97;2.30;;;;;;;14.08;70.79;93558.38;2048268;70;20579;-74
2022/10/03 08:12:19;;;;;;;4.78;2.97;;;;;;;14.13;69.05;93570.69;2047969;70;20293;-76
2022/10/03 08:15:05;;;;;;;5.68;3.13;;;;;;;14.14;71.12;93575.00;2048144;70;20226;-77
2022/10/03 08:17:58;;;;;;;4.32;3.22;;;;;;;14.15;71.35;93576.47;2048114;70;20151;-77
2022/10/03 08:20:24;;;;;;;3.58;3.00;;;;;;;14.36;70.59;93578.47;2050281;70;20157;-76
2022/10/03 08:22:58;;;;;;;4.80;2.90;;;;;;;14.48;70.46;93585.66;2048084;70;20551;-78
2022/10/03 08:25:34;;;;;;;3.92;3.03;;;;;;;14.45;69.43;93586.84;2047194;70;20158;-78
2022/10/03 08:28:15;;;;;;;3.40;3.10;;;;;;;14.54;70.55;93581.69;2050303;70;20142;-77
2022/10/03 08:31:08;;;;;;;4.95;3.20;;;;;;;14.54;70.71;93581.69;2048111;70;20205;-77
2022/10/03 08:34:04;;;;;;;3.05;2.47;;;;;;;14.23;71.42;93583.38;2048126;70;20255;-77
2022/10/03 08:36:58;;;;;;;3.42;2.60;;;;;;;14.26;70.90;93580.69;2048031;70;20263;-78
2022/10/03 08:39:45;;;;;;;4.10;3.65;;;;;;;14.53;70.02;93571.72;2048123;70;20487;-77
2022/10/03 08:42:29;;;;;;;20.02;12.50;;;;;;;14.62;67.76;93576.53;2047228;70;20154;-80
2022/10/03 08:45:26;;;;;;;4.63;3.72;;;;;;;14.81;66.73;93581.19;2047895;70;20170;-80
2022/10/03 08:48:04;;;;;;;4.53;3.40;;;;;;;14.97;67.32;93584.94;2048050;70;20214;-80
2022/10/03 08:50:40;;;;;;;4.65;3.60;;;;;;;14.97;67.18;93593.47;2047997;70;20181;-81
2022/10/03 08:53:15;;;;;;;4.63;3.20;;;;;;;15.14;67.29;93589.47;2048072;70;20186;-78
2022/10/03 08:55:44;;;;;;;2.80;2.50;;;;;;;14.54;69.89;93582.44;2048341;70;20518;-80
2022/10/03 08:58:24;;;;;;;3.88;2.30;;;;;;;14.52;70.46;93582.28;2048403;70;20150;-79
2022/10/03 09:01:21;;;;;;;3.45;2.17;;;;;;;14.95;68.04;93587.69;2048347;70;20138;-80
2022/10/03 09:04:05;;;;;;;3.33;2.38;;;;;;;15.02;68.74;93583.81;2048525;70;20205;-80
2022/10/03 09:07:00;;;;;;;3.65;3.00;;;;;;;14.64;69.91;93585.88;2048397;70;20591;-81
2022/10/03 09:09:44;;;;;;;4.78;3.13;;;;;;;14.99;68.76;93585.81;2048466;70;20178;-79
2022/10/03 09:12:23;;;;;;;4.40;2.80;;;;;;;15.33;66.62;93580.66;2048242;70;20189;-80
2022/10/03 09:15:08;;;;;;;3.80;2.80;;;;;;;15.33;66.76;93580.66;2048286;70;20182;-77
2022/10/03 09:17:54;;;;;;;3.63;3.00;;;;;;;15.33;66.44;93580.66;2048494;70;20609;-77
2022/10/03 09:21:06;;;;;;;3.70;2.65;;;;;;;15.47;67.70;93581.47;2048210;70;20158;-80
2022/10/03 09:23:50;;;;;;;6.68;4.50;;;;;;;15.00;68.65;93578.78;2048315;70;20167;-77
2022/10/03 09:26:16;;;;;;;5.95;3.72;;;;;;;15.16;69.23;93572.56;2048188;70;20242;-79
2022/10/03 09:29:06;;;;;;;2.47;2.28;;;;;;;15.23;67.64;93571.56;2048215;70;20151;-84
2022/10/03 09:32:02;;;;;;;3.55;2.17;;;;;;;15.45;66.26;93567.16;2048360;70;20150;-80
2022/10/03 09:34:28;;;;;;;4.97;2.78;;;;;;;15.55;66.88;93569.09;2048255;70;20159;-80
2022/10/03 09:37:23;;;;;;;4.38;2.53;;;;;;;15.02;68.08;93568.91;2048517;70;20145;-77
2022/10/03 09:39:54;;;;;;;4.35;2.40;;;;;;;15.82;66.60;93569.25;2044802;70;20165;-75
2022/10/03 09:42:52;;;;;;;1.95;1.85;;;;;;;15.75;65.41;93564.56;2048387;70;20158;-79
2022/10/03 09:45:51;;;;;;;4.22;2.00;;;;;;;16.11;64.44;93565.09;2045136;70;20217;-79
2022/10/03 09:48:31;;;;;;;2.10;1.90;;;;;;;16.30;64.42;93569.66;2048019;70;20202;-76
2022/10/03 09:51:28;;;;;;;2.78;1.92;;;;;;;16.32;65.26;93564.09;2047795;70;20177;-79
2022/10/03 09:54:08;;;;;;;3.08;1.85;;;;;;;16.20;64.67;93564.16;2047852;70;20154;-81
2022/10/03 09:57:00;;;;;;;1.50;1.40;;;;;;;15.90;65.18;93568.94;2047154;70;20139;-82
2022/10/03 09:59:44;;;;;;;1.73;1.50;;;;;;;15.84;65.28;93557.25;2042761;70;20163;-81
2022/10/03 10:02:32;;;;;;;1.30;1.20;;;;;;;15.89;64.81;93556.84;2048119;70;20567;-79
2022/10/03 10:05:03;;;;;;;1.92;1.42;;;;;;;16.13;64.81;93557.44;2048440;70;20245;-82
2022/10/03 10:07:35;;;;;;;2.10;1.65;;;;;;;15.74;64.55;93552.47;2048112;70;20186;-78
2022/10/03 10:10:16;;;;;;;1.50;1.33;;;;;;;15.84;63.10;93560.81;2048218;70;20154;-80
2022/10/03 10:13:10;;;;;;;2.95;1.63;;;;;;;15.84;63.50;93554.41;2048028;70;20225;-81
2022/10/03 10:16:08;;;;;;;1.45;0.95;;;;;;;15.92;62.59;93552.03;2048146;70;20151;-79
2022/10/03 10:19:11;;;;;;;1.30;1.05;;;;;;;16.30;61.78;93541.97;2048112;70;20162;-78
2022/10/03 10:21:49;;;;;;;1.48;1.00;;;;;;;16.51;61.54;93540.94;2048153;70;20547;-76
2022/10/03 10:24:36;;;;;;;3.50;1.13;;;;;;;16.56;61.92;93536.94;2048219;70;20571;-77
2022/10/03 10:27:29;;;;;;;1.90;1.45;;;;;;;16.09;61.18;93531.66;2048159;70;20292;-78
2022/10/03 10:30:07;;;;;;;1.65;1.50;;;;;;;16.66;61.02;93540.31;2048131;70;20233;-79
2022/10/03 10:32:45;;;;;;;1.83;1.45;;;;;;;16.68;60.83;93536.84;2048168;70;20705;-78
2022/10/03 10:35:38;;;;;;;2.08;1.50;;;;;;;16.90;60.82;93535.16;2048284;70;20591;-73
2022/10/03 10:38:19;;;;;;;2.33;1.60;;;;;;;16.93;60.66;93530.31;2048362;70;20155;-78
2022/10/03 10:40:48;;;;;;;1.70;1.40;;;;;;;16.96;60.49;93534.75;2047268;70;20155;-77
2022/10/03 10:43:32;;;;;;;1.73;1.10;;;;;;;16.71;61.08;93539.16;2048430;70;20506;-76
2022/10/03 10:46:10;;;;;;;1.20;1.10;;;;;;;16.77;60.73;93538.78;2050354;70;20234;-74
2022/10/03 10:49:01;;;;;;;1.15;1.05;;;;;;;17.19;60.35;93533.75;2048191;70;20248;-76
2022/10/03 10:51:46;;;;;;;1.67;1.20;;;;;;;17.34;60.10;93520.94;2049702;70;20146;-77
2022/10/03 10:54:29;;;;;;;1.95;1.10;;;;;;;17.41;58.73;93523.47;2048196;70;20223;-75
2022/10/03 10:57:23;;;;;;;1.75;1.45;;;;;;;17.49;58.92;93521.00;2048294;70;20203;-79
2022/10/03 11:00:26;;;;;;;1.80;1.60;;;;;;;17.43;57.59;93509.31;2048115;70;20147;-78
2022/10/03 11:03:23;;;;;;;1.10;1.00;;;;;;;17.83;57.18;93512.66;2048190;70;20206;-81
2022/10/03 11:06:14;;;;;;;1.58;1.23;;;;;;;21.35;53.75;93518.97;2048374;70;20593;-81
2022/10/03 11:09:23;;;;;;;2.30;1.10;;;;;;;21.69;50.29;93507.91;2048090;70;20150;-77
2022/10/03 11:12:23;;;;;;;1.50;1.30;;;;;;;20.31;50.43;93504.53;2048160;70;20139;-75
2022/10/03 11:15:25;;;;;;;6.68;1.63;;;;;;;23.23;48.21;93511.78;2048170;70;20143;-75
2022/10/03 11:18:39;;;;;;;1.55;1.45;;;;;;;26.10;39.91;93505.59;2048247;70;20158;-76
2022/10/03 11:21:23;;;;;;;;;;;;;;;26.50;38.15;93507.66;2040011;70;20641;-75
2022/10/03 11:23:57;;;;;;;0.73;0.73;;;;;;;28.47;34.86;93511.16;2048197;70;20050;-73
2022/10/03 11:26:35;;;;;;;0.60;0.60;;;;;;;29.81;33.50;93507.38;2048046;70;20628;-76
2022/10/03 11:29:19;;;;;;;0.77;0.75;;;;;;;31.87;30.91;93519.25;2048256;70;20254;-74
2022/10/03 11:32:10;;;;;;;1.20;0.90;;;;;;;30.31;31.60;93508.88;2048062;70;20138;-79
2022/10/03 11:35:00;;;;;;;1.02;0.70;;;;;;;30.88;31.64;93517.50;2048257;70;20153;-74
2022/10/03 11:37:31;;;;;;;0.60;0.52;;;;;;;33.22;28.33;93515.16;2048162;70;20589;-80
2022/10/03 11:40:27;;;;;;;0.95;0.80;;;;;;;30.31;29.11;93509.59;2048078;70;20566;-76
2022/10/03 11:43:14;;;;;;;1.00;0.80;;;;;;;30.55;29.50;93502.28;2048051;70;20587;-80
2022/10/03 11:45:44;;;;;;;0.52;0.52;;;;;;;31.00;29.29;93500.00;2047231;70;20170;-79
2022/10/03 11:48:25;;;;;;;1.88;0.70;;;;;;;31.26;28.32;93495.56;2048043;70;20249;-81
2022/10/03 11:51:21;;;;;;;1.17;0.70;;;;;;;34.54;26.74;93492.09;2048167;70;20626;-78
2022/10/03 11:54:02;;;;;;;0.88;0.50;;;;;;;35.40;25.23;93494.13;2048062;70;20166;-77
2022/10/03 11:56:40;;;;;;;0.65;0.60;;;;;;;32.91;26.17;93487.81;2048019;70;20165;-78
2022/10/03 11:59:31;;;;;;;1.17;0.70;;;;;;;34.45;26.56;93492.97;2048043;70;20290;-78
2022/10/03 12:02:44;;;;;;;1.45;0.70;;;;;;;34.68;24.84;93481.63;2047606;70;20252;-76
2022/10/03 12:05:39;;;;;;;1.33;0.50;;;;;;;33.42;25.37;93475.50;2048205;70;20593;-78
2022/10/03 12:11:36;;;;;;;0.77;0.50;;;;;;;32.99;25.42;93470.19;2048076;70;20263;-79
2022/10/03 12:14:08;;;;;;;0.60;0.60;;;;;;;34.33;24.29;93468.34;2047769;70;20174;-80
2022/10/03 12:16:45;;;;;;;;;;;;;;;36.18;24.08;93471.94;2047366;70;20510;-78
2022/10/03 12:19:35;;;;;;;1.08;0.70;;;;;;;33.25;26.07;93458.22;2048193;70;20054;-76
2022/10/03 12:22:22;;;;;;;1.50;0.50;;;;;;;35.12;23.88;93463.25;2048382;70;20158;-80
2022/10/03 12:24:49;;;;;;;0.70;0.60;;;;;;;35.45;22.59;93459.63;2048010;70;20146;-79
2022/10/03 12:27:56;;;;;;;1.27;0.60;;;;;;;35.36;22.11;93462.00;2047972;70;20539;-80
2022/10/03 12:30:23;;;;;;;0.98;0.43;;;;;;;35.44;24.06;93449.41;2047753;70;20158;-80
2022/10/03 12:33:16;;;;;;;0.95;0.70;;;;;;;37.08;22.24;93455.00;2047045;70;20230;-78
2022/10/03 12:36:09;;;;;;;1.80;0.75;;;;;;;34.88;22.87;93446.88;2048024;70;20177;-79
2022/10/03 12:38:35;;;;;;;1.27;0.70;;;;;;;36.12;22.44;93445.72;2047917;70;20153;-78
2022/10/03 12:41:23;;;;;;;0.70;0.50;;;;;;;37.52;22.16;93432.44;2048063;70;20146;-77
2022/10/03 12:44:10;;;;;;;1.50;0.60;;;;;;;37.42;21.63;93440.84;2047871;70;20210;-78
2022/10/03 12:46:41;;;;;;;0.75;0.60;;;;;;;36.57;21.42;93435.81;2048143;70;20159;-77
2022/10/03 12:49:15;;;;;;;;;;;;;;;35.47;22.16;93433.28;2048105;70;20631;-79
2022/10/03 12:51:52;;;;;;;0.50;0.40;;;;;;;36.07;22.04;93429.72;2048365;70;20080;-79
2022/10/03 12:54:27;;;;;;;1.60;0.50;;;;;;;35.18;23.11;93429.50;2048074;70;20214;-77
2022/10/03 12:57:26;;;;;;;0.93;0.55;;;;;;;35.50;21.63;93422.25;2047820;70;20134;-75
2022/10/03 13:00:08;;;;;;;1.08;0.50;;;;;;;35.86;24.23;93414.81;2047893;70;20325;-77
2022/10/03 13:02:37;;;;;;;;;;;;;;;35.40;22.27;93418.03;2048011;70;20230;-77
2022/10/03 13:05:28;;;;;;;1.38;0.50;;;;;;;37.48;21.74;93411.28;2047908;70;20077;-75
2022/10/03 13:08:00;;;;;;;0.98;0.50;;;;;;;37.52;21.27;93411.88;2047846;70;20158;-77
2022/10/03 13:10:33;;;;;;;0.73;0.50;;;;;;;37.21;21.70;93412.06;2047821;70;20182;-77